Time;durP1;ratioP1;P1;durP2;ratioP2;P2;SDS_P1;SDS_P2;PMS_P1;PMS_P2;Temp;Humidity;BMP_temperature;BMP_pressure;BME280_temperature;BME280_humidity;BME280_pressure;Samples;Min_cycle;Max_cycle;Signal;HPM_P1;HPM_P2
2021/01/29 00:00:22;;;;;;;7.57;5.95;;;2.30;84.00;;;;;;5056008;28;20043;-51
2021/01/29 00:02:52;;;;;;;7.90;5.72;;;2.20;83.50;;;;;;5060182;28;20426;-51
2021/01/29 00:05:23;;;;;;;7.38;5.80;;;2.20;83.20;;;;;;5059029;28;20025;-52
2021/01/29 00:07:49;;;;;;;6.90;4.82;;;2.20;83.10;;;;;;5059852;28;20060;-51
2021/01/29 00:10:16;;;;;;;7.40;4.10;;;2.10;83.10;;;;;;5059309;28;20066;-53
2021/01/29 00:12:42;;;;;;;5.10;3.67;;;2.10;83.10;;;;;;5059344;28;20119;-50
2021/01/29 00:15:10;;;;;;;5.78;3.95;;;2.00;82.80;;;;;;5058932;28;20060;-51
2021/01/29 00:17:36;;;;;;;8.50;3.30;;;1.90;82.60;;;;;;5059321;28;20056;-50
2021/01/29 04:38:27;;;;;;;11.48;5.85;;;0.20;80.80;;;;;;5076618;28;20048;-49
2021/01/29 04:41:16;;;;;;;16.60;7.05;;;0.20;80.90;;;;;;5065076;28;20109;-49
2021/01/29 04:44:24;;;;;;;15.82;7.20;;;0.20;80.90;;;;;;5075865;28;20056;-52
2021/01/29 04:47:19;;;;;;;21.42;8.07;;;0.20;81.10;;;;;;5087822;28;20144;-49
2021/01/29 04:50:06;;;;;;;21.65;9.63;;;0.30;80.90;;;;;;5096145;28;20481;-49
2021/01/29 04:53:06;;;;;;;13.52;7.95;;;0.30;80.70;;;;;;5096674;28;20038;-49
2021/01/29 04:56:04;;;;;;;17.85;9.35;;;0.30;80.40;;;;;;5098554;28;20492;-49
2021/01/29 04:58:35;;;;;;;15.60;7.93;;;0.20;79.80;;;;;;5078187;28;20040;-49
2021/01/29 05:01:34;;;;;;;11.57;7.47;;;0.20;79.60;;;;;;5117973;28;20423;-50
2021/01/29 05:04:24;;;;;;;14.50;8.30;;;0.20;79.80;;;;;;5117627;28;20031;-50
2021/01/29 05:06:55;;;;;;;12.40;7.25;;;0.20;80.10;;;;;;5109670;28;20035;-53
2021/01/29 05:09:58;;;;;;;13.25;7.82;;;0.20;80.20;;;;;;5111307;28;20111;-50
2021/01/29 05:12:32;;;;;;;13.25;7.88;;;0.20;80.00;;;;;;5118762;28;20115;-49
2021/01/29 05:15:07;;;;;;;12.25;8.02;;;0.20;79.90;;;;;;5119194;28;20422;-49
2021/01/29 05:17:44;;;;;;;15.05;8.55;;;0.30;79.60;;;;;;5118927;28;20028;-50
2021/01/29 05:20:23;;;;;;;11.02;7.40;;;0.30;79.60;;;;;;5119459;28;20020;-49
2021/01/29 05:23:14;;;;;;;12.38;8.00;;;0.30;79.60;;;;;;5118295;28;20919;-50
2021/01/29 05:25:48;;;;;;;12.85;7.30;;;0.30;79.20;;;;;;5117515;27;20027;-49
2021/01/29 05:28:52;;;;;;;11.27;7.45;;;0.30;79.20;;;;;;5118898;28;20421;-50
2021/01/29 05:31:26;;;;;;;13.63;8.38;;;0.30;79.60;;;;;;5064534;28;20421;-48
2021/01/29 05:34:10;;;;;;;14.90;9.05;;;0.30;79.00;;;;;;5118219;28;20425;-51
2021/01/29 05:36:51;;;;;;;10.98;8.05;;;0.30;78.90;;;;;;5102863;28;20020;-51
2021/01/29 05:39:24;;;;;;;15.07;8.25;;;0.30;78.50;;;;;;5117437;28;20075;-50
2021/01/29 05:42:02;;;;;;;16.73;9.25;;;0.30;78.60;;;;;;5124104;27;20484;-49
2021/01/29 05:44:59;;;;;;;13.20;8.65;;;0.20;78.40;;;;;;5118392;28;20039;-50
2021/01/29 05:47:45;;;;;;;13.15;8.45;;;0.20;78.30;;;;;;5118382;28;20020;-50
2021/01/29 05:50:49;;;;;;;22.52;9.35;;;0.10;78.10;;;;;;5117258;28;20072;-54
2021/01/29 05:53:18;;;;;;;16.02;9.05;;;0.10;78.30;;;;;;5118391;28;20051;-51
2021/01/29 05:56:02;;;;;;;15.40;9.55;;;0.10;78.40;;;;;;5117332;28;20113;-50
2021/01/29 05:58:39;;;;;;;16.63;9.95;;;0.00;78.40;;;;;;5118283;27;20110;-52
2021/01/29 06:01:27;;;;;;;15.68;10.18;;;0.00;78.30;;;;;;5117065;28;20052;-49
2021/01/29 06:04:05;;;;;;;17.70;10.70;;;0.00;78.00;;;;;;5114117;28;20306;-49
2021/01/29 06:06:54;;;;;;;17.58;11.02;;;0.00;78.10;;;;;;5115072;28;20020;-51
2021/01/29 06:09:26;;;;;;;17.15;11.18;;;0.00;78.30;;;;;;5106020;28;20031;-50
2021/01/29 06:12:01;;;;;;;17.63;10.82;;;0.00;78.30;;;;;;5115255;28;20024;-49
2021/01/29 06:14:36;;;;;;;17.45;12.15;;;-0.10;77.60;;;;;;5114703;28;20059;-51
2021/01/29 06:17:43;;;;;;;21.13;12.27;;;-0.10;77.10;;;;;;5117930;27;20050;-50
2021/01/29 06:20:46;;;;;;;17.50;10.68;;;-0.10;77.40;;;;;;5085643;28;20039;-52
2021/01/29 06:23:24;;;;;;;22.80;12.23;;;-0.10;77.60;;;;;;5114607;28;20040;-50
2021/01/29 06:25:50;;;;;;;18.02;11.25;;;-0.20;77.20;;;;;;5115786;28;20028;-52
2021/01/29 06:28:43;;;;;;;21.23;13.32;;;-0.20;77.40;;;;;;5116430;28;20084;-51
2021/01/29 06:31:14;;;;;;;24.02;12.88;;;-0.20;77.70;;;;;;5116088;28;20032;-50
2021/01/29 06:34:06;;;;;;;24.02;13.25;;;-0.20;77.90;;;;;;5111013;27;20028;-51
2021/01/29 06:36:34;;;;;;;;;;;-0.20;77.70;;;;;;5117123;28;20355;-49
2021/01/29 06:39:00;;;;;;;24.48;13.30;;;-0.20;77.80;;;;;;5115600;28;20260;-50
2021/01/29 06:41:35;;;;;;;22.85;13.43;;;-0.30;77.00;;;;;;5115861;28;20155;-52
2021/01/29 06:44:09;;;;;;;19.13;11.55;;;-0.30;77.10;;;;;;5116135;28;20432;-50
2021/01/29 06:46:56;;;;;;;27.00;13.35;;;-0.30;77.00;;;;;;5114385;28;20088;-51
2021/01/29 06:49:32;;;;;;;19.38;11.65;;;-0.40;76.50;;;;;;5102575;28;20425;-50
2021/01/29 06:52:35;;;;;;;19.25;12.13;;;-0.40;76.40;;;;;;5105816;28;20095;-49
2021/01/29 06:55:13;;;;;;;23.65;13.00;;;-0.40;76.50;;;;;;5116961;28;20035;-53
2021/01/29 06:58:03;;;;;;;21.45;12.93;;;-0.50;76.70;;;;;;5116977;28;20084;-50
2021/01/29 07:00:51;;;;;;;19.52;10.70;;;-0.40;77.20;;;;;;5115540;28;20122;-50
2021/01/29 07:03:53;;;;;;;19.23;11.70;;;-0.40;77.50;;;;;;5115005;28;20101;-53
2021/01/29 07:06:37;;;;;;;22.55;12.95;;;-0.30;77.30;;;;;;5107967;28;20334;-51
2021/01/29 07:09:18;;;;;;;23.55;13.20;;;-0.20;77.80;;;;;;5097840;28;20026;-49
2021/01/29 07:11:47;;;;;;;22.65;13.15;;;-0.10;78.00;;;;;;5107255;28;20574;-51
2021/01/29 07:14:29;;;;;;;24.75;13.38;;;-0.10;77.50;;;;;;5104134;28;20027;-49
2021/01/29 07:17:32;;;;;;;22.08;13.07;;;0.00;76.30;;;;;;5109559;28;20032;-50
2021/01/29 07:20:34;;;;;;;22.60;12.43;;;0.00;75.70;;;;;;5100851;28;20084;-48
2021/01/29 07:23:28;;;;;;;20.30;12.52;;;0.00;75.80;;;;;;5111359;27;20341;-50
2021/01/29 07:26:23;;;;;;;21.42;11.90;;;-0.10;75.70;;;;;;5110927;28;20024;-49
2021/01/29 07:29:09;;;;;;;21.73;13.52;;;-0.10;76.00;;;;;;5109132;28;20015;-49
2021/01/29 07:31:48;;;;;;;20.48;12.30;;;-0.10;75.90;;;;;;5113430;28;20027;-50
2021/01/29 07:34:23;;;;;;;22.23;12.90;;;-0.10;75.60;;;;;;5116041;28;20028;-50
2021/01/29 07:36:59;;;;;;;22.45;13.25;;;-0.20;74.60;;;;;;5113144;28;20114;-50
2021/01/29 07:40:03;;;;;;;24.20;14.65;;;-0.20;74.80;;;;;;5112456;28;20097;-50
2021/01/29 07:42:40;;;;;;;24.05;14.10;;;-0.30;75.00;;;;;;5106905;28;20119;-51
2021/01/29 07:45:34;;;;;;;34.50;18.52;;;-0.30;74.80;;;;;;5103175;28;20024;-50
2021/01/29 07:48:38;;;;;;;26.55;14.90;;;-0.30;74.60;;;;;;5107112;28;20146;-50
2021/01/29 07:51:08;;;;;;;23.75;13.80;;;-0.40;74.40;;;;;;5102983;28;20452;-54
2021/01/29 07:54:04;;;;;;;25.88;14.80;;;-0.40;74.20;;;;;;5113745;28;20042;-52
2021/01/29 07:56:33;;;;;;;22.38;13.85;;;-0.40;74.90;;;;;;5113680;28;20027;-50
2021/01/29 07:59:22;;;;;;;23.90;13.80;;;-0.40;74.70;;;;;;5130009;28;20106;-53
2021/01/29 08:02:03;;;;;;;34.75;14.85;;;-0.40;74.90;;;;;;5113307;28;20031;-49
2021/01/29 08:04:47;;;;;;;24.85;12.68;;;-0.40;75.10;;;;;;5104580;28;20039;-50
2021/01/29 08:07:51;;;;;;;30.60;16.35;;;-0.40;74.70;;;;;;5114456;28;20027;-49
2021/01/29 08:10:31;;;;;;;19.67;12.45;;;-0.40;74.30;;;;;;5033063;28;20055;-49
2021/01/29 08:13:32;;;;;;;23.10;12.48;;;-0.40;75.10;;;;;;5100226;28;20067;-50
2021/01/29 08:16:31;;;;;;;29.85;14.35;;;-0.40;75.50;;;;;;5081414;28;20371;-50
2021/01/29 08:19:10;;;;;;;22.20;13.48;;;-0.30;76.40;;;;;;5115301;28;20030;-49
2021/01/29 08:21:50;;;;;;;25.30;14.55;;;-0.20;76.20;;;;;;5114544;28;20035;-50
2021/01/29 08:24:45;;;;;;;23.50;12.90;;;-0.10;76.10;;;;;;5107184;28;20034;-49
2021/01/29 08:27:32;;;;;;;22.23;12.60;;;0.00;75.80;;;;;;5093810;28;20349;-51
2021/01/29 08:30:28;;;;;;;20.58;12.27;;;0.10;75.10;;;;;;5115441;28;20302;-51
2021/01/29 08:33:09;;;;;;;22.77;12.30;;;0.10;74.70;;;;;;5113298;27;20420;-50
2021/01/29 08:36:02;;;;;;;24.58;14.60;;;0.20;74.40;;;;;;5114670;28;20027;-52
2021/01/29 08:38:49;;;;;;;24.60;12.90;;;0.20;74.20;;;;;;5114192;28;20047;-51
2021/01/29 08:42:02;;;;;;;19.13;11.82;;;0.30;75.10;;;;;;5112152;28;20293;-52
2021/01/29 08:44:46;;;;;;;28.13;13.75;;;0.40;75.10;;;;;;5031152;28;20029;-50
2021/01/29 08:47:35;;;;;;;21.02;12.05;;;0.40;73.80;;;;;;5117070;28;20040;-49
2021/01/29 08:50:22;;;;;;;24.10;13.30;;;0.40;73.30;;;;;;5118737;28;20088;-50
2021/01/29 08:53:23;;;;;;;22.48;12.90;;;0.40;73.90;;;;;;5116906;28;20043;-50
2021/01/29 08:56:11;;;;;;;20.63;12.80;;;0.40;73.00;;;;;;5036172;28;20124;-50
2021/01/29 08:58:59;;;;;;;24.10;13.38;;;0.40;72.90;;;;;;5114309;28;20114;-52
2021/01/29 09:01:41;;;;;;;24.08;12.48;;;0.40;73.00;;;;;;5112190;28;20043;-52
2021/01/29 09:04:16;;;;;;;18.17;11.68;;;0.40;72.90;;;;;;5118137;28;20409;-50
2021/01/29 09:06:44;;;;;;;22.20;12.77;;;0.50;73.20;;;;;;5117904;28;20345;-52
2021/01/29 09:09:18;;;;;;;21.08;12.43;;;0.50;73.30;;;;;;5118272;28;20390;-49
2021/01/29 09:11:53;;;;;;;19.45;11.32;;;0.50;73.00;;;;;;5118204;28;20027;-48
2021/01/29 09:14:35;;;;;;;23.30;11.48;;;0.50;73.00;;;;;;5118068;28;20034;-51
2021/01/29 09:17:13;;;;;;;24.42;14.18;;;0.50;72.70;;;;;;5117387;28;20110;-48
2021/01/29 09:19:53;;;;;;;19.02;12.48;;;0.50;72.70;;;;;;5116806;28;20035;-50
2021/01/29 09:22:50;;;;;;;21.63;12.68;;;0.50;72.10;;;;;;5107001;28;20345;-50
2021/01/29 09:25:23;;;;;;;19.63;12.63;;;0.40;73.00;;;;;;5045390;28;20055;-49
2021/01/29 09:28:03;;;;;;;16.88;10.95;;;0.40;73.30;;;;;;5117591;28;20020;-49
2021/01/29 09:30:41;;;;;;;18.60;11.57;;;0.40;73.30;;;;;;5117693;28;20023;-51
2021/01/29 09:33:35;;;;;;;20.80;10.90;;;0.40;73.20;;;;;;5115815;28;20023;-47
2021/01/29 09:36:13;;;;;;;22.30;12.98;;;0.30;73.20;;;;;;5112955;28;20027;-49
2021/01/29 09:38:58;;;;;;;23.90;13.95;;;0.20;74.00;;;;;;5116630;28;20090;-50
2021/01/29 09:41:29;;;;;;;24.95;12.82;;;0.20;74.50;;;;;;5109990;28;20044;-49
2021/01/29 09:44:13;;;;;;;29.33;15.25;;;0.10;74.90;;;;;;5098011;28;20020;-50
2021/01/29 09:46:42;;;;;;;26.08;14.35;;;-0.10;75.30;;;;;;5111805;28;20019;-48
2021/01/29 09:49:19;;;;;;;30.88;15.32;;;-0.20;76.00;;;;;;5110174;28;20050;-50
2021/01/29 09:51:48;;;;;;;31.52;18.63;;;-0.20;76.90;;;;;;5106390;28;20496;-50
2021/01/29 09:54:18;;;;;;;27.27;16.15;;;-0.30;77.30;;;;;;5116942;28;20406;-49
2021/01/29 09:56:53;;;;;;;25.70;15.15;;;-0.30;77.70;;;;;;5117150;28;20028;-49
2021/01/29 09:59:35;;;;;;;28.17;16.98;;;-0.40;77.90;;;;;;5117086;28;20093;-49
2021/01/29 10:02:18;;;;;;;29.55;15.63;;;-0.40;78.20;;;;;;5098035;28;20039;-49
2021/01/29 10:05:01;;;;;;;27.65;15.18;;;-0.40;79.00;;;;;;5100443;28;20138;-49
2021/01/29 10:07:30;;;;;;;27.90;16.17;;;-0.50;79.40;;;;;;5113579;28;20094;-49
2021/01/29 10:10:19;;;;;;;25.73;14.80;;;-0.60;80.00;;;;;;5108309;28;20031;-51
2021/01/29 10:12:58;;;;;;;26.73;14.30;;;-0.60;80.60;;;;;;5116159;27;20034;-53
2021/01/29 10:15:30;;;;;;;29.52;16.70;;;-0.60;80.80;;;;;;5118953;27;20398;-50
2021/01/29 10:18:19;;;;;;;27.52;15.70;;;-0.60;81.00;;;;;;5115933;28;20015;-51
2021/01/29 10:20:45;;;;;;;25.13;14.85;;;-0.60;81.10;;;;;;5115278;28;20031;-51
2021/01/29 10:23:35;;;;;;;27.85;13.80;;;-0.60;81.20;;;;;;5116064;28;20035;-48
2021/01/29 10:26:19;;;;;;;26.67;15.98;;;-0.60;81.10;;;;;;5111124;28;20020;-49
2021/01/29 10:28:50;;;;;;;23.20;13.77;;;-0.70;81.10;;;;;;5115963;28;20038;-53
2021/01/29 10:31:20;;;;;;;25.05;14.90;;;-0.70;81.10;;;;;;5118431;27;20031;-50
2021/01/29 10:33:48;;;;;;;31.48;15.05;;;-0.70;81.30;;;;;;5115646;28;20027;-49
2021/01/29 10:36:19;;;;;;;29.98;16.33;;;-0.70;81.60;;;;;;5115670;28;20051;-51
2021/01/29 10:38:54;;;;;;;26.25;14.65;;;-0.70;81.60;;;;;;5116450;28;20059;-52
2021/01/29 10:41:32;;;;;;;30.02;14.85;;;-0.70;81.70;;;;;;5116425;28;20062;-52
2021/01/29 10:44:17;;;;;;;31.80;15.90;;;-0.80;81.90;;;;;;5096485;28;20337;-49
2021/01/29 10:47:16;;;;;;;31.38;16.40;;;-0.80;82.00;;;;;;5115020;28;20075;-49
2021/01/29 10:50:23;;;;;;;30.02;17.05;;;-0.80;82.20;;;;;;5115530;28;20293;-52
2021/01/29 10:53:10;;;;;;;30.80;17.30;;;-0.80;82.30;;;;;;5116758;28;20115;-50
2021/01/29 10:55:41;;;;;;;30.08;15.02;;;-0.90;82.60;;;;;;5098161;28;20036;-53
2021/01/29 10:58:28;;;;;;;36.05;17.75;;;-0.90;82.70;;;;;;5115546;28;20027;-50
2021/01/29 11:01:00;;;;;;;33.80;18.15;;;-0.90;82.90;;;;;;5114703;28;20084;-50
2021/01/29 11:03:57;;;;;;;33.78;18.70;;;-0.80;83.30;;;;;;5115487;28;20027;-49
2021/01/29 11:06:50;;;;;;;35.10;18.50;;;-0.80;83.40;;;;;;5104509;28;20066;-53
2021/01/29 11:09:41;;;;;;;29.60;16.55;;;-0.70;83.40;;;;;;5095637;28;20432;-52
2021/01/29 11:12:33;;;;;;;;;;;-0.60;83.60;;;;;;5098726;28;20027;-49
2021/01/29 11:15:23;;;;;;;35.25;17.48;;;-0.60;83.60;;;;;;5076597;28;19919;-51
2021/01/29 11:17:53;;;;;;;35.33;16.88;;;-0.60;83.70;;;;;;5113472;28;20111;-51
2021/01/29 11:20:24;;;;;;;31.80;17.90;;;-0.60;83.90;;;;;;5107983;28;20486;-52
2021/01/29 11:23:22;;;;;;;29.65;17.67;;;-0.60;83.90;;;;;;5117489;27;20338;-50
2021/01/29 11:25:57;;;;;;;30.63;17.90;;;-0.60;84.00;;;;;;5113059;28;20023;-49
2021/01/29 11:28:31;;;;;;;35.47;18.10;;;-0.50;84.00;;;;;;5115622;28;20127;-50
2021/01/29 11:31:01;;;;;;;33.85;18.48;;;-0.50;84.10;;;;;;5114302;28;20032;-49
2021/01/29 11:33:29;;;;;;;30.40;17.83;;;-0.50;84.00;;;;;;5115014;28;20019;-52
2021/01/29 11:35:58;;;;;;;28.02;16.50;;;-0.50;84.20;;;;;;5114066;28;20035;-51
2021/01/29 11:38:43;;;;;;;34.70;17.33;;;-0.40;84.40;;;;;;5109581;28;20138;-49
2021/01/29 11:41:25;;;;;;;33.53;17.92;;;-0.40;84.40;;;;;;5104286;28;20039;-49
2021/01/29 11:44:24;;;;;;;26.98;15.52;;;-0.40;84.50;;;;;;5115475;28;20036;-51
2021/01/29 11:46:53;;;;;;;28.63;16.90;;;-0.40;84.40;;;;;;5114224;28;20038;-51
2021/01/29 11:49:23;;;;;;;33.22;18.75;;;-0.40;84.40;;;;;;5114918;28;20093;-52
2021/01/29 11:51:52;;;;;;;32.78;18.55;;;-0.40;84.50;;;;;;5114160;28;20085;-53
2021/01/29 11:54:39;;;;;;;34.50;19.23;;;-0.40;84.80;;;;;;5115420;28;20102;-49
2021/01/29 11:57:15;;;;;;;38.10;17.77;;;-0.30;84.90;;;;;;5114264;28;20042;-50
2021/01/29 12:00:10;;;;;;;36.28;20.50;;;-0.30;85.00;;;;;;5116045;28;20034;-52
2021/01/29 12:02:39;;;;;;;38.42;20.52;;;-0.30;84.90;;;;;;5104234;28;20059;-50
2021/01/29 12:05:20;;;;;;;33.25;19.58;;;-0.20;85.10;;;;;;5115436;28;20046;-51
2021/01/29 12:07:54;;;;;;;36.42;19.05;;;-0.20;84.90;;;;;;5115633;28;20028;-50
2021/01/29 12:10:47;;;;;;;37.58;19.67;;;-0.20;84.90;;;;;;5108404;28;20430;-51
2021/01/29 12:13:21;;;;;;;40.17;22.10;;;-0.20;84.80;;;;;;5107964;28;20388;-53
2021/01/29 12:16:08;;;;;;;38.88;22.35;;;-0.20;85.10;;;;;;5104162;28;20023;-54
2021/01/29 12:18:36;;;;;;;43.10;21.90;;;-0.20;85.00;;;;;;5106537;28;20044;-50
2021/01/29 12:21:24;;;;;;;36.30;18.83;;;-0.20;85.10;;;;;;5112075;28;20110;-53
2021/01/29 12:24:21;;;;;;;36.72;19.77;;;-0.10;85.10;;;;;;5101439;28;20028;-45
2021/01/29 12:27:06;;;;;;;40.22;21.70;;;-0.10;85.00;;;;;;5113172;28;20027;-48
2021/01/29 12:29:48;;;;;;;36.50;20.40;;;-0.10;85.20;;;;;;5120009;28;20310;-47
2021/01/29 12:32:30;;;;;;;36.03;18.98;;;-0.10;85.20;;;;;;5112923;28;20073;-59
2021/01/29 12:35:02;;;;;;;38.70;19.73;;;-0.10;85.10;;;;;;5110311;28;20023;-45
2021/01/29 12:37:34;;;;;;;34.08;18.40;;;0.00;85.10;;;;;;5113664;28;20031;-47
2021/01/29 12:40:35;;;;;;;41.50;19.73;;;0.00;84.90;;;;;;5094550;28;20043;-52
2021/01/29 12:43:04;;;;;;;34.85;19.42;;;0.00;84.80;;;;;;5075891;28;20048;-45
2021/01/29 12:45:48;;;;;;;39.88;20.40;;;0.10;84.80;;;;;;5105074;28;20069;-47
2021/01/29 12:48:21;;;;;;;42.38;21.20;;;0.10;84.80;;;;;;5094214;28;20310;-49
2021/01/29 12:50:55;;;;;;;37.95;20.67;;;0.10;84.60;;;;;;5110241;28;20303;-54
2021/01/29 12:53:34;;;;;;;37.03;20.63;;;0.10;84.60;;;;;;5105562;28;20040;-49
2021/01/29 12:56:11;;;;;;;34.22;19.27;;;0.10;84.40;;;;;;5114589;28;20023;-47
2021/01/29 12:58:40;;;;;;;33.08;19.77;;;0.10;84.40;;;;;;5113617;28;20150;-51
2021/01/29 13:01:08;;;;;;;37.08;20.23;;;0.10;85.10;;;;;;5110775;28;20062;-52
2021/01/29 13:03:40;;;;;;;32.03;18.40;;;0.10;84.30;;;;;;5112746;28;20460;-50
2021/01/29 13:06:51;;;;;;;32.75;18.08;;;0.10;84.20;;;;;;5107416;28;20034;-53
2021/01/29 13:09:51;;;;;;;32.85;18.83;;;0.10;84.30;;;;;;5113366;28;20438;-53
2021/01/29 13:12:20;;;;;;;31.90;18.17;;;0.10;84.30;;;;;;5113567;28;20322;-51
2021/01/29 13:14:51;;;;;;;33.28;19.00;;;0.00;84.20;;;;;;5112127;28;20131;-51
2021/01/29 13:17:24;;;;;;;31.02;18.52;;;0.10;84.30;;;;;;5112628;28;20126;-50
2021/01/29 13:19:59;;;;;;;30.45;18.08;;;0.10;84.30;;;;;;5115143;28;20028;-54
2021/01/29 13:22:34;;;;;;;31.20;18.15;;;0.10;84.30;;;;;;5098365;28;20346;-50
2021/01/29 13:25:10;;;;;;;32.80;20.02;;;0.10;84.40;;;;;;5116536;28;20480;-49
2021/01/29 13:27:44;;;;;;;29.88;17.38;;;0.10;84.20;;;;;;5116380;28;20027;-53
2021/01/29 13:30:37;;;;;;;33.00;19.00;;;0.10;84.10;;;;;;5118024;28;20080;-49
2021/01/29 13:33:27;;;;;;;35.72;20.02;;;0.20;84.10;;;;;;5117635;28;20027;-49
2021/01/29 13:36:31;;;;;;;29.58;17.73;;;0.20;83.80;;;;;;5116334;28;20027;-51
2021/01/29 13:39:30;;;;;;;32.42;17.27;;;0.10;83.90;;;;;;5110352;27;20148;-52
2021/01/29 13:42:01;;;;;;;27.92;17.80;;;0.10;84.00;;;;;;5061863;28;20135;-49
2021/01/29 13:44:35;;;;;;;34.15;19.10;;;0.10;84.10;;;;;;5106805;28;20031;-49
2021/01/29 13:47:02;;;;;;;33.38;18.85;;;0.20;84.30;;;;;;5115623;27;20032;-49
2021/01/29 13:49:36;;;;;;;35.42;19.00;;;0.20;84.20;;;;;;5115541;28;20024;-52
2021/01/29 13:52:33;;;;;;;38.08;21.55;;;0.20;84.10;;;;;;5115919;28;20031;-47
2021/01/29 13:55:28;;;;;;;35.95;22.60;;;0.20;84.00;;;;;;5114176;28;20028;-48
2021/01/29 13:58:18;;;;;;;34.42;19.15;;;0.30;83.80;;;;;;5094243;28;20188;-48
2021/01/29 14:00:52;;;;;;;50.17;23.17;;;0.30;83.80;;;;;;5110846;28;20506;-49
2021/01/29 14:03:28;;;;;;;36.22;20.95;;;0.30;83.90;;;;;;5108988;28;20063;-48
2021/01/29 14:05:54;;;;;;;42.17;21.90;;;0.30;83.70;;;;;;5115762;28;20023;-48
2021/01/29 14:08:19;;;;;;;40.63;20.63;;;0.30;83.70;;;;;;5115563;28;20076;-52
2021/01/29 14:11:00;;;;;;;34.25;19.77;;;0.30;83.50;;;;;;5116945;27;20165;-53
2021/01/29 14:13:41;;;;;;;39.17;19.88;;;0.30;83.30;;;;;;5116350;28;20027;-40
2021/01/29 14:16:26;;;;;;;40.20;21.75;;;0.30;83.30;;;;;;5116952;28;20115;-40
2021/01/29 14:19:57;;;;;;;38.22;21.05;;;0.40;82.90;;;;;;5112029;27;20389;-42
2021/01/29 14:22:28;;;;;;;34.40;20.33;;;0.30;83.20;;;;;;5115679;28;20059;-42
2021/01/29 14:25:06;;;;;;;30.42;18.90;;;0.30;83.10;;;;;;5106528;28;20024;-42
2021/01/29 14:27:40;;;;;;;32.65;18.98;;;0.30;83.10;;;;;;5123165;28;20341;-42
2021/01/29 14:30:23;;;;;;;44.88;23.95;;;0.30;83.10;;;;;;5130059;28;20032;-42
2021/01/29 14:33:21;;;;;;;27.95;17.52;;;0.30;83.20;;;;;;5131576;28;20451;-43
2021/01/29 14:35:59;;;;;;;34.22;20.35;;;0.30;83.10;;;;;;5127748;28;20027;-43
2021/01/29 14:39:01;;;;;;;31.48;18.90;;;0.30;82.60;;;;;;5132391;28;20048;-42
2021/01/29 14:41:57;;;;;;;36.65;19.67;;;0.30;82.60;;;;;;5115230;28;20032;-43
2021/01/29 14:44:26;;;;;;;33.20;19.88;;;0.20;82.70;;;;;;5115108;28;20072;-43
2021/01/29 14:47:10;;;;;;;35.05;20.67;;;0.10;82.80;;;;;;5094307;28;20044;-42
2021/01/29 14:50:02;;;;;;;43.13;22.80;;;0.10;82.90;;;;;;5110397;28;20028;-44
2021/01/29 14:52:46;;;;;;;39.25;21.60;;;0.10;82.70;;;;;;5122907;28;20333;-43
2021/01/29 14:55:18;;;;;;;37.53;20.40;;;0.10;82.80;;;;;;5123229;28;20031;-42
2021/01/29 14:57:45;;;;;;;34.45;19.38;;;0.10;82.80;;;;;;5094266;28;20040;-43
2021/01/29 15:00:38;;;;;;;38.67;21.67;;;0.10;82.90;;;;;;5106416;28;20024;-43
2021/01/29 15:03:16;;;;;;;35.10;19.52;;;0.10;82.90;;;;;;5100461;28;20033;-43
2021/01/29 15:05:44;;;;;;;31.17;19.20;;;0.10;82.80;;;;;;5103885;28;20157;-42
2021/01/29 15:08:21;;;;;;;45.47;20.42;;;0.00;82.50;;;;;;5119637;28;20027;-43
2021/01/29 15:10:53;;;;;;;35.28;20.45;;;0.00;82.40;;;;;;5132006;28;20425;-43
2021/01/29 15:13:35;;;;;;;40.10;21.38;;;0.00;82.20;;;;;;5131030;28;20047;-42
2021/01/29 15:16:01;;;;;;;38.63;20.70;;;-0.10;82.10;;;;;;5130172;28;20022;-42
2021/01/29 15:18:36;;;;;;;39.13;20.70;;;-0.10;82.30;;;;;;5113315;28;20076;-43
2021/01/29 15:21:31;;;;;;;39.97;22.77;;;-0.20;82.40;;;;;;5093853;28;20401;-43
2021/01/29 15:24:01;;;;;;;35.28;21.58;;;-0.20;82.30;;;;;;5116936;28;20047;-44
2021/01/29 15:26:27;;;;;;;40.53;21.83;;;-0.30;82.30;;;;;;5126600;27;20027;-43
2021/01/29 15:29:08;;;;;;;38.75;21.50;;;-0.30;82.40;;;;;;5109332;28;20413;-42
2021/01/29 15:31:39;;;;;;;40.90;22.25;;;-0.30;82.30;;;;;;5107063;28;20027;-43
2021/01/29 15:34:05;;;;;;;36.13;20.27;;;-0.30;82.20;;;;;;5111998;28;20043;-42
2021/01/29 15:36:48;;;;;;;38.30;20.92;;;-0.40;82.30;;;;;;5099532;28;20020;-42
2021/01/29 15:39:22;;;;;;;39.10;19.95;;;-0.40;82.30;;;;;;5100027;28;20066;-44
2021/01/29 15:41:51;;;;;;;35.17;20.42;;;-0.40;82.30;;;;;;5096808;28;20031;-45
2021/01/29 15:44:23;;;;;;;42.97;22.58;;;-0.50;82.60;;;;;;5098537;28;20032;-42
2021/01/29 15:46:49;;;;;;;35.85;19.55;;;-0.50;82.60;;;;;;5118214;28;20016;-42
2021/01/29 15:49:17;;;;;;;35.42;20.20;;;-0.50;82.50;;;;;;5112234;28;20024;-42
2021/01/29 15:51:46;;;;;;;39.17;21.63;;;-0.50;82.60;;;;;;5115524;28;20173;-43
2021/01/29 15:54:24;;;;;;;46.15;22.48;;;-0.60;82.60;;;;;;5088266;28;20028;-42
2021/01/29 15:57:00;;;;;;;40.20;22.27;;;-0.50;82.70;;;;;;5100649;28;20039;-42
2021/01/29 15:59:37;;;;;;;44.03;23.73;;;-0.50;82.60;;;;;;5096903;28;20138;-42
2021/01/29 16:02:09;;;;;;;37.47;21.85;;;-0.50;82.50;;;;;;5094875;28;20485;-43
2021/01/29 16:04:53;;;;;;;32.83;19.08;;;-0.60;82.50;;;;;;5110877;28;20031;-44
2021/01/29 16:07:25;;;;;;;34.45;20.45;;;-0.60;82.40;;;;;;5097513;28;20317;-43
2021/01/29 16:09:52;;;;;;;36.78;20.30;;;-0.60;82.40;;;;;;5097160;28;20418;-42
2021/01/29 16:12:37;;;;;;;37.17;20.63;;;-0.70;82.60;;;;;;5090300;28;20460;-42
2021/01/29 16:15:05;;;;;;;34.63;20.33;;;-0.70;82.60;;;;;;5089304;28;20087;-42
2021/01/29 16:17:52;;;;;;;39.95;21.02;;;-0.70;82.70;;;;;;5088104;28;20122;-43
2021/01/29 16:20:24;;;;;;;35.40;20.70;;;-0.70;82.60;;;;;;5075123;28;20044;-42
2021/01/29 16:23:01;;;;;;;37.85;22.00;;;-0.80;82.60;;;;;;5075191;28;20073;-44
2021/01/29 16:25:27;;;;;;;37.22;20.17;;;-0.80;82.40;;;;;;5075500;28;20433;-42
2021/01/29 16:27:54;;;;;;;36.90;20.80;;;-0.80;82.40;;;;;;5075788;28;20021;-42
2021/01/29 16:30:28;;;;;;;35.40;20.35;;;-0.80;82.50;;;;;;5075337;28;20521;-42
2021/01/29 16:33:04;;;;;;;40.42;23.15;;;-0.80;82.60;;;;;;5076071;28;20032;-42
2021/01/29 16:35:40;;;;;;;41.78;23.10;;;-0.90;82.80;;;;;;5076234;28;20031;-42
2021/01/29 16:38:06;;;;;;;42.92;22.85;;;-0.90;82.90;;;;;;5076623;28;20055;-42
2021/01/29 16:40:42;;;;;;;44.58;23.17;;;-0.90;82.90;;;;;;5074611;28;20051;-42
2021/01/29 16:43:18;;;;;;;47.33;24.50;;;-0.90;83.10;;;;;;5076437;28;20446;-42
2021/01/29 16:45:47;;;;;;;43.00;25.10;;;-0.90;83.30;;;;;;5076444;28;20034;-42
2021/01/29 16:48:25;;;;;;;43.47;22.95;;;-0.80;83.50;;;;;;5077170;28;20422;-41
2021/01/29 16:51:11;;;;;;;45.28;23.00;;;-0.80;83.50;;;;;;5076171;28;20029;-42
2021/01/29 16:53:40;;;;;;;44.58;22.17;;;-0.80;83.40;;;;;;5077609;28;20031;-41
2021/01/29 16:56:24;;;;;;;40.92;22.75;;;-0.80;83.30;;;;;;5076387;28;20024;-42
2021/01/29 16:58:55;;;;;;;43.63;23.33;;;-0.80;83.30;;;;;;5075451;28;20040;-41
2021/01/29 17:01:29;;;;;;;45.45;24.55;;;-0.80;83.30;;;;;;5074710;28;20054;-42
2021/01/29 17:04:01;;;;;;;46.67;23.50;;;-0.80;83.50;;;;;;5088175;28;20028;-42
2021/01/29 17:06:40;;;;;;;43.25;22.83;;;-0.80;83.50;;;;;;5094698;28;20024;-42
2021/01/29 17:09:19;;;;;;;42.50;24.08;;;-0.70;83.60;;;;;;5095738;28;20043;-42
2021/01/29 17:11:45;;;;;;;44.67;23.90;;;-0.70;83.50;;;;;;5094827;28;20042;-43
2021/01/29 17:14:16;;;;;;;41.75;23.15;;;-0.70;83.40;;;;;;5096465;28;20428;-42
2021/01/29 17:16:43;;;;;;;;;;;-0.70;83.30;;;;;;5096663;28;20024;-42
2021/01/29 17:19:15;;;;;;;40.03;22.73;;;-0.70;83.00;;;;;;5096454;28;19927;-42
2021/01/29 17:21:44;;;;;;;43.03;22.98;;;-0.80;83.00;;;;;;5095673;28;20568;-41
2021/01/29 17:24:38;;;;;;;44.50;24.02;;;-0.80;82.90;;;;;;5096361;28;20082;-41
2021/01/29 17:27:08;;;;;;;43.38;23.20;;;-0.80;83.10;;;;;;5095561;28;20031;-42
2021/01/29 17:29:41;;;;;;;47.03;24.75;;;-0.80;83.20;;;;;;5096229;28;20111;-42
2021/01/29 17:32:07;;;;;;;46.40;24.20;;;-0.80;83.30;;;;;;5095432;28;20119;-42
2021/01/29 17:34:36;;;;;;;48.17;25.75;;;-0.80;83.20;;;;;;5096470;28;20102;-42
2021/01/29 17:37:19;;;;;;;44.10;25.42;;;-0.80;83.00;;;;;;5094874;28;20020;-41
2021/01/29 17:39:46;;;;;;;45.88;25.23;;;-0.80;82.90;;;;;;5096162;28;20081;-41
2021/01/29 17:42:39;;;;;;;45.67;25.23;;;-0.80;82.90;;;;;;5096031;28;20333;-41
2021/01/29 17:45:22;;;;;;;46.17;25.88;;;-0.80;83.00;;;;;;5095785;28;20425;-42
2021/01/29 17:47:48;;;;;;;46.30;24.45;;;-0.80;83.10;;;;;;5096104;28;20028;-41
2021/01/29 17:50:20;;;;;;;46.67;25.20;;;-0.80;83.40;;;;;;5095134;28;20620;-41
2021/01/29 17:52:55;;;;;;;50.50;27.15;;;-0.80;83.40;;;;;;5095450;28;20040;-42
2021/01/29 17:55:23;;;;;;;48.78;25.77;;;-0.70;83.50;;;;;;5096017;28;20085;-41
2021/01/29 17:57:49;;;;;;;46.33;24.35;;;-0.70;83.50;;;;;;5095914;28;20036;-41